Time;durP1;ratioP1;P1;durP2;ratioP2;P2;SDS_P1;SDS_P2;PMS_P1;PMS_P2;Temp;Humidity;BMP_temperature;BMP_pressure;BME280_temperature;BME280_humidity;BME280_pressure;Samples;Min_cycle;Max_cycle;Signal;HPM_P1;HPM_P2
2024/03/24 00:00:19;;;;;;;6.05;3.90;;;19.20;60.20;;;;;;5048254;28;20017;-48
2024/03/24 00:02:44;;;;;;;5.15;3.67;;;19.20;60.20;;;;;;5051161;28;20056;-54
2024/03/24 00:05:10;;;;;;;9.25;4.03;;;19.20;60.20;;;;;;5055377;28;20029;-52
2024/03/24 00:07:35;;;;;;;5.88;3.90;;;19.20;60.20;;;;;;5053420;28;20025;-53
2024/03/24 00:10:01;;;;;;;5.95;3.90;;;19.20;60.10;;;;;;5057562;28;20106;-55
2024/03/24 00:12:26;;;;;;;4.40;3.33;;;19.20;60.10;;;;;;5052964;28;20027;-52
2024/03/24 00:14:52;;;;;;;4.75;3.75;;;19.20;60.10;;;;;;5054444;28;20560;-50
2024/03/24 00:17:17;;;;;;;5.95;3.80;;;19.20;60.20;;;;;;5053326;28;20021;-54
2024/03/24 00:19:43;;;;;;;4.20;3.38;;;19.20;60.10;;;;;;5057087;28;20021;-54
2024/03/24 00:22:08;;;;;;;5.22;3.45;;;19.20;60.10;;;;;;5056393;28;20016;-54
2024/03/24 00:24:34;;;;;;;4.95;3.22;;;19.20;60.10;;;;;;5053704;28;20029;-54
2024/03/24 00:27:00;;;;;;;4.53;3.10;;;19.20;60.10;;;;;;5054084;28;20036;-54
2024/03/24 00:29:25;;;;;;;5.78;4.05;;;19.20;60.10;;;;;;5054472;28;20025;-56
2024/03/24 00:31:52;;;;;;;6.38;3.60;;;19.20;60.20;;;;;;5060338;28;20086;-61
2024/03/24 00:34:17;;;;;;;4.18;3.60;;;19.20;60.10;;;;;;5047688;28;20028;-54
2024/03/24 00:36:43;;;;;;;4.13;3.20;;;19.20;60.10;;;;;;5059392;28;20396;-55
2024/03/24 00:39:08;;;;;;;5.18;3.45;;;19.20;60.10;;;;;;5056620;28;20036;-54
2024/03/24 00:41:34;;;;;;;3.50;2.67;;;19.20;60.10;;;;;;5049866;28;20025;-56
2024/03/24 00:44:00;;;;;;;4.75;3.33;;;19.20;60.10;;;;;;5054818;28;20171;-54
2024/03/24 00:46:25;;;;;;;5.22;3.60;;;19.20;60.10;;;;;;5053290;28;20127;-55
2024/03/24 00:48:52;;;;;;;3.83;2.72;;;19.20;60.10;;;;;;5059012;28;20041;-56
2024/03/24 00:51:18;;;;;;;4.75;3.33;;;19.10;60.00;;;;;;5052256;28;20044;-56
2024/03/24 00:53:44;;;;;;;5.05;3.05;;;19.10;60.00;;;;;;5058191;28;20500;-53
2024/03/24 00:56:09;;;;;;;3.17;2.40;;;19.20;60.10;;;;;;5056206;28;20029;-52
2024/03/24 00:58:35;;;;;;;4.18;2.95;;;19.20;60.10;;;;;;5055639;28;20032;-53
2024/03/24 01:01:00;;;;;;;3.50;2.67;;;19.20;60.10;;;;;;5054676;28;20412;-56
2024/03/24 01:03:26;;;;;;;4.07;2.78;;;19.10;60.10;;;;;;5056235;28;20083;-54
2024/03/24 01:05:51;;;;;;;3.95;2.97;;;19.20;60.10;;;;;;5054296;28;20146;-52
2024/03/24 01:08:17;;;;;;;4.35;3.03;;;19.10;60.10;;;;;;5056972;28;20036;-54
2024/03/24 01:10:43;;;;;;;3.38;2.88;;;19.10;60.20;;;;;;5058217;28;20641;-55
2024/03/24 01:13:08;;;;;;;4.13;2.65;;;19.10;60.20;;;;;;5061128;28;20398;-55
2024/03/24 01:15:33;;;;;;;3.10;2.65;;;19.00;60.30;;;;;;5043973;28;20607;-54
2024/03/24 01:17:59;;;;;;;2.92;2.30;;;19.00;60.30;;;;;;5059255;28;20108;-54
2024/03/24 01:20:24;;;;;;;3.70;2.72;;;19.00;60.40;;;;;;5056160;28;20020;-55
2024/03/24 01:22:50;;;;;;;2.47;1.95;;;19.00;60.50;;;;;;5057741;28;20497;-53
2024/03/24 01:25:15;;;;;;;3.65;2.80;;;18.90;60.60;;;;;;5057488;28;20044;-52
2024/03/24 01:27:41;;;;;;;3.15;2.10;;;18.90;60.60;;;;;;5054204;28;20035;-57
2024/03/24 01:30:07;;;;;;;4.35;2.92;;;18.90;60.70;;;;;;5051743;28;20049;-56
2024/03/24 01:32:33;;;;;;;3.63;2.10;;;18.90;60.80;;;;;;5060822;28;20020;-55
2024/03/24 01:34:58;;;;;;;2.78;1.95;;;18.80;60.80;;;;;;5054573;28;20031;-57
2024/03/24 01:37:23;;;;;;;2.63;2.25;;;18.80;60.80;;;;;;5058913;28;20035;-56
2024/03/24 01:39:49;;;;;;;2.20;1.80;;;18.80;60.80;;;;;;5045092;28;20036;-55
2024/03/24 01:42:16;;;;;;;3.20;2.08;;;18.80;60.80;;;;;;5051466;28;20025;-57
2024/03/24 01:44:41;;;;;;;3.05;2.10;;;18.80;60.80;;;;;;5056420;28;20086;-57
2024/03/24 01:47:09;;;;;;;2.42;1.75;;;18.80;60.80;;;;;;5050753;28;20041;-55
2024/03/24 01:49:35;;;;;;;2.60;2.30;;;18.80;60.70;;;;;;5054543;28;20086;-60
2024/03/24 01:52:08;;;;;;;2.63;2.05;;;18.80;60.60;;;;;;5058281;28;20037;-51
2024/03/24 01:54:37;;;;;;;2.83;2.38;;;18.80;60.60;;;;;;5054473;28;20024;-53
2024/03/24 01:57:03;;;;;;;2.63;2.17;;;18.80;60.50;;;;;;5052224;28;20044;-60
2024/03/24 01:59:28;;;;;;;2.10;1.77;;;18.80;60.40;;;;;;5050408;28;20032;-55
2024/03/24 02:01:56;;;;;;;3.40;2.05;;;18.90;60.40;;;;;;5054755;28;20482;-54
2024/03/24 02:04:22;;;;;;;2.38;1.95;;;18.90;60.40;;;;;;5049920;28;20666;-55
2024/03/24 02:06:47;;;;;;;2.67;2.20;;;18.90;60.40;;;;;;5050642;28;20029;-54
2024/03/24 02:09:13;;;;;;;1.73;1.40;;;18.90;60.30;;;;;;5053582;28;20058;-54
2024/03/24 02:11:38;;;;;;;2.30;1.50;;;19.00;60.30;;;;;;5053784;28;20047;-54
2024/03/24 02:14:04;;;;;;;2.13;1.92;;;18.90;60.20;;;;;;5055056;28;20041;-53
2024/03/24 02:16:29;;;;;;;3.55;1.45;;;19.00;60.20;;;;;;5056641;28;20051;-52
2024/03/24 02:18:55;;;;;;;2.78;1.98;;;19.00;60.20;;;;;;5054583;28;20032;-52
2024/03/24 02:21:20;;;;;;;2.47;1.38;;;19.00;60.20;;;;;;5055565;28;20032;-56
2024/03/24 02:23:48;;;;;;;2.22;1.60;;;19.00;60.10;;;;;;5057242;28;20032;-53
2024/03/24 02:26:16;;;;;;;1.88;1.55;;;19.00;60.10;;;;;;5054160;28;20055;-52
2024/03/24 02:28:42;;;;;;;2.30;1.45;;;19.00;60.00;;;;;;5054424;28;20074;-54
2024/03/24 02:31:08;;;;;;;1.80;1.50;;;19.00;60.00;;;;;;5049853;28;20033;-52
2024/03/24 02:33:34;;;;;;;2.17;1.55;;;19.10;59.90;;;;;;5049857;28;20029;-55
2024/03/24 02:35:59;;;;;;;2.38;1.27;;;19.00;59.90;;;;;;5053320;28;20071;-53
2024/03/24 02:38:25;;;;;;;1.63;1.40;;;19.10;59.80;;;;;;5055965;28;20040;-57
2024/03/24 02:40:50;;;;;;;1.25;1.13;;;19.10;59.80;;;;;;5055164;28;20558;-55
2024/03/24 02:43:16;;;;;;;2.00;1.67;;;19.10;59.80;;;;;;5053010;28;20116;-51
2024/03/24 02:45:42;;;;;;;2.08;1.55;;;19.10;59.70;;;;;;5052820;28;20029;-55
2024/03/24 02:48:07;;;;;;;1.60;1.20;;;19.10;59.70;;;;;;5054567;28;20111;-51
2024/03/24 02:50:33;;;;;;;1.48;1.13;;;19.10;59.70;;;;;;5053683;28;20059;-57
2024/03/24 02:52:59;;;;;;;1.83;1.20;;;19.10;59.70;;;;;;5056843;28;20040;-53
2024/03/24 02:55:25;;;;;;;2.55;1.30;;;19.10;59.60;;;;;;5054096;28;20547;-55
2024/03/24 02:57:52;;;;;;;1.35;1.10;;;19.10;59.60;;;;;;5055150;28;20045;-52
2024/03/24 03:00:18;;;;;;;1.80;1.20;;;19.10;59.50;;;;;;5046923;28;20051;-55
2024/03/24 03:02:44;;;;;;;1.27;1.13;;;19.20;59.60;;;;;;5049661;28;20064;-58
2024/03/24 03:05:10;;;;;;;1.10;1.00;;;19.20;59.60;;;;;;5047360;28;20087;-56
2024/03/24 03:07:35;;;;;;;1.50;1.27;;;19.20;59.60;;;;;;5045833;28;20036;-52
2024/03/24 03:10:03;;;;;;;1.38;1.08;;;19.20;59.60;;;;;;5051006;28;20039;-54
2024/03/24 03:12:29;;;;;;;2.10;1.02;;;19.20;59.60;;;;;;5046016;28;20029;-56
2024/03/24 03:14:54;;;;;;;1.85;1.23;;;19.20;59.60;;;;;;5048339;28;20052;-53
2024/03/24 03:17:20;;;;;;;1.35;0.90;;;19.20;59.50;;;;;;5048981;28;20037;-52
2024/03/24 03:19:45;;;;;;;1.90;1.20;;;19.20;59.60;;;;;;5050130;28;20029;-53
2024/03/24 03:22:10;;;;;;;1.25;0.93;;;19.10;59.50;;;;;;5051964;28;20037;-54
2024/03/24 03:24:36;;;;;;;2.38;1.30;;;19.10;59.60;;;;;;5048401;28;20049;-56
2024/03/24 03:27:02;;;;;;;1.45;0.80;;;19.10;59.50;;;;;;5050866;28;20122;-51
2024/03/24 03:29:27;;;;;;;1.13;0.90;;;19.10;59.60;;;;;;5047107;28;20040;-57
2024/03/24 03:31:52;;;;;;;1.52;0.98;;;19.10;59.60;;;;;;5045150;28;20064;-55
2024/03/24 03:34:18;;;;;;;1.25;0.85;;;19.10;59.60;;;;;;5054561;28;20021;-51
2024/03/24 03:36:43;;;;;;;1.80;1.00;;;19.10;59.60;;;;;;5056806;28;20045;-53
2024/03/24 03:39:09;;;;;;;1.33;0.80;;;19.10;59.60;;;;;;5056517;28;20115;-51
2024/03/24 03:41:34;;;;;;;1.95;1.05;;;19.10;59.70;;;;;;5056447;28;20036;-50
2024/03/24 03:44:00;;;;;;;0.77;0.70;;;19.00;59.60;;;;;;5060264;28;20048;-52
2024/03/24 03:46:25;;;;;;;1.65;1.17;;;19.00;59.60;;;;;;5051103;28;20036;-57
2024/03/24 03:48:51;;;;;;;1.13;0.80;;;19.00;59.70;;;;;;5049736;28;20481;-54
2024/03/24 03:51:29;;;;;;;2.15;0.95;;;19.00;59.70;;;;;;5058372;28;20108;-50
2024/03/24 03:53:58;;;;;;;1.45;0.90;;;19.00;59.70;;;;;;5059066;28;20110;-50
2024/03/24 03:56:23;;;;;;;1.17;0.95;;;19.00;59.60;;;;;;5057513;28;20043;-53
2024/03/24 03:58:49;;;;;;;1.25;0.70;;;19.00;59.70;;;;;;5052481;28;20025;-57
2024/03/24 04:01:14;;;;;;;0.98;0.70;;;19.00;59.70;;;;;;5052242;28;20086;-53
2024/03/24 04:03:40;;;;;;;1.83;0.98;;;19.00;59.50;;;;;;5044055;28;20067;-53
2024/03/24 04:06:05;;;;;;;0.70;0.60;;;19.00;59.70;;;;;;5045889;28;20045;-57
2024/03/24 04:08:31;;;;;;;1.17;0.70;;;19.00;59.60;;;;;;5054443;28;20028;-50
2024/03/24 04:10:57;;;;;;;1.05;0.60;;;19.00;59.60;;;;;;5053497;28;20120;-53
2024/03/24 04:13:22;;;;;;;1.00;0.80;;;19.00;60.30;;;;;;5049115;28;20049;-57
2024/03/24 04:15:48;;;;;;;0.93;0.70;;;19.00;59.60;;;;;;5051364;28;20120;-55
2024/03/24 04:18:13;;;;;;;0.90;0.70;;;19.00;59.60;;;;;;5048164;28;20037;-53
2024/03/24 04:20:38;;;;;;;1.17;0.70;;;19.00;59.60;;;;;;5057085;28;20024;-53
2024/03/24 04:23:04;;;;;;;0.90;0.65;;;19.00;59.60;;;;;;5054258;28;20036;-51
2024/03/24 04:25:30;;;;;;;1.50;0.80;;;19.00;59.70;;;;;;5052941;28;20498;-57
2024/03/24 04:27:55;;;;;;;2.38;0.95;;;19.00;59.70;;;;;;5054366;28;20025;-50
2024/03/24 04:30:21;;;;;;;1.17;0.80;;;19.00;59.60;;;;;;5055557;28;20500;-55
2024/03/24 04:32:46;;;;;;;1.08;0.80;;;19.00;59.60;;;;;;5039967;28;20022;-52
2024/03/24 04:35:12;;;;;;;1.30;0.68;;;19.00;59.60;;;;;;5052808;28;20024;-56
2024/03/24 04:37:38;;;;;;;1.00;0.63;;;19.00;59.60;;;;;;5049647;28;20090;-57
2024/03/24 04:40:05;;;;;;;0.70;0.60;;;19.00;59.60;;;;;;5055282;28;20036;-50
2024/03/24 04:42:32;;;;;;;0.93;0.63;;;19.00;59.50;;;;;;5054974;28;20035;-57
2024/03/24 04:44:58;;;;;;;1.08;0.70;;;19.00;59.60;;;;;;5051694;28;20021;-54
2024/03/24 04:47:24;;;;;;;0.80;0.50;;;19.00;59.60;;;;;;5049928;28;20086;-50
2024/03/24 04:49:49;;;;;;;1.20;0.60;;;19.00;59.60;;;;;;5055361;28;20040;-53
2024/03/24 04:52:15;;;;;;;0.80;0.68;;;19.00;59.60;;;;;;5044307;28;20434;-52
2024/03/24 04:54:40;;;;;;;1.02;0.50;;;19.00;59.50;;;;;;5057416;28;20028;-52
2024/03/24 04:57:06;;;;;;;0.95;0.75;;;19.00;59.40;;;;;;5059592;28;20033;-53
2024/03/24 04:59:31;;;;;;;0.80;0.65;;;19.00;59.50;;;;;;5055313;28;20466;-53
2024/03/24 05:01:57;;;;;;;0.70;0.60;;;19.00;59.50;;;;;;5052891;28;20021;-56
2024/03/24 05:04:22;;;;;;;0.85;0.50;;;19.00;59.40;;;;;;5053032;28;20025;-56
2024/03/24 05:06:48;;;;;;;1.00;0.60;;;19.00;59.40;;;;;;5052334;28;20040;-51
2024/03/24 05:09:13;;;;;;;0.80;0.52;;;19.00;59.40;;;;;;5054082;28;20029;-58
2024/03/24 05:11:39;;;;;;;0.55;0.55;;;19.00;59.40;;;;;;5053105;28;20497;-52
2024/03/24 05:14:05;;;;;;;0.45;0.30;;;19.00;59.30;;;;;;5052595;28;20259;-51
2024/03/24 05:16:32;;;;;;;0.60;0.50;;;19.00;59.30;;;;;;5049300;28;20041;-53
2024/03/24 05:19:03;;;;;;;1.05;0.70;;;19.10;59.30;;;;;;5051377;28;20051;-53
2024/03/24 05:21:28;;;;;;;0.70;0.52;;;19.10;59.20;;;;;;5048502;28;20024;-52
2024/03/24 05:23:54;;;;;;;0.70;0.45;;;19.10;59.30;;;;;;5054005;28;20116;-54
2024/03/24 05:26:19;;;;;;;0.45;0.40;;;19.10;59.20;;;;;;5051424;28;20037;-55
2024/03/24 05:28:45;;;;;;;1.00;0.60;;;19.10;59.30;;;;;;5055580;28;20433;-54
2024/03/24 05:31:10;;;;;;;0.70;0.43;;;19.10;59.30;;;;;;5051731;28;20036;-52
2024/03/24 05:33:36;;;;;;;0.50;0.35;;;19.00;59.20;;;;;;5053712;28;20075;-50
2024/03/24 05:36:03;;;;;;;1.10;0.47;;;19.10;59.20;;;;;;5053178;28;20111;-56
2024/03/24 05:38:31;;;;;;;0.82;0.45;;;19.10;59.20;;;;;;5056046;28;20044;-53
2024/03/24 05:41:00;;;;;;;0.90;0.32;;;19.10;59.20;;;;;;5042244;28;20489;-51
2024/03/24 05:43:26;;;;;;;1.13;0.55;;;19.10;59.20;;;;;;5057361;28;20124;-52
2024/03/24 05:45:55;;;;;;;0.70;0.70;;;19.10;59.20;;;;;;5051124;28;20115;-50
2024/03/24 05:48:22;;;;;;;1.17;0.60;;;19.10;59.20;;;;;;5052010;28;20453;-52
2024/03/24 05:50:57;;;;;;;0.50;0.40;;;19.10;59.20;;;;;;5046085;28;20120;-50
2024/03/24 05:53:23;;;;;;;1.20;0.60;;;19.10;59.20;;;;;;5055827;28;20426;-53
2024/03/24 05:55:50;;;;;;;1.35;0.57;;;19.10;59.10;;;;;;5048689;28;20063;-56
2024/03/24 05:58:16;;;;;;;0.70;0.47;;;19.10;59.20;;;;;;5054154;28;20074;-57
2024/03/24 06:00:42;;;;;;;1.00;0.55;;;19.20;59.30;;;;;;5051960;28;20078;-53
2024/03/24 06:03:07;;;;;;;1.05;0.55;;;19.10;59.10;;;;;;5054905;28;20029;-53
2024/03/24 06:05:35;;;;;;;0.82;0.40;;;19.20;59.20;;;;;;5051555;28;20024;-56
2024/03/24 06:08:00;;;;;;;1.50;0.60;;;19.10;59.10;;;;;;5055292;28;20029;-51
2024/03/24 06:10:26;;;;;;;0.50;0.50;;;19.20;59.20;;;;;;5053277;28;20032;-57
2024/03/24 06:12:53;;;;;;;1.25;0.47;;;19.20;59.10;;;;;;5049328;28;20363;-51
2024/03/24 06:15:18;;;;;;;0.30;0.20;;;19.20;59.00;;;;;;5051795;28;20021;-58
2024/03/24 06:17:43;;;;;;;0.60;0.30;;;19.20;58.90;;;;;;5054906;28;20536;-54
2024/03/24 06:20:10;;;;;;;0.60;0.50;;;19.20;58.90;;;;;;5053495;28;20130;-54
2024/03/24 06:22:35;;;;;;;2.35;0.57;;;19.20;58.90;;;;;;5052733;28;20021;-55
2024/03/24 06:25:00;;;;;;;0.75;0.50;;;19.30;58.90;;;;;;5045272;28;20752;-53
2024/03/24 06:27:26;;;;;;;0.50;0.32;;;19.30;58.90;;;;;;5052819;28;20032;-51
2024/03/24 06:29:51;;;;;;;0.38;0.30;;;19.30;58.90;;;;;;5050891;28;20071;-55
2024/03/24 06:32:17;;;;;;;1.25;0.73;;;19.20;58.80;;;;;;5054123;28;20358;-51
2024/03/24 06:34:42;;;;;;;0.77;0.40;;;19.20;58.80;;;;;;5055024;28;20020;-51
2024/03/24 06:37:08;;;;;;;0.55;0.40;;;19.30;58.90;;;;;;5054863;28;20025;-55
2024/03/24 06:39:33;;;;;;;0.57;0.30;;;19.30;58.90;;;;;;5050160;28;20549;-55
2024/03/24 06:42:04;;;;;;;0.43;0.30;;;19.30;58.80;;;;;;5055994;28;20052;-51
2024/03/24 06:44:35;;;;;;;1.15;0.32;;;19.30;58.90;;;;;;5055264;28;20025;-53
2024/03/24 06:47:01;;;;;;;0.40;0.30;;;19.30;58.90;;;;;;5054434;28;20047;-57
2024/03/24 06:49:27;;;;;;;0.50;0.45;;;19.30;58.90;;;;;;5053626;28;20072;-55
2024/03/24 06:51:52;;;;;;;0.95;0.47;;;19.30;58.90;;;;;;5054273;28;20048;-53
2024/03/24 06:54:18;;;;;;;1.73;0.43;;;19.30;58.90;;;;;;5052626;28;20029;-53
2024/03/24 06:56:43;;;;;;;2.13;0.60;;;19.30;58.90;;;;;;5041058;28;20553;-54
2024/03/24 06:59:09;;;;;;;0.90;0.50;;;19.20;58.90;;;;;;5054800;28;20091;-53
2024/03/24 07:01:34;;;;;;;1.15;0.40;;;19.30;59.00;;;;;;5058413;28;20571;-57
2024/03/24 07:04:00;;;;;;;0.40;0.30;;;19.30;59.00;;;;;;5053151;28;20041;-51
2024/03/24 07:06:25;;;;;;;0.50;0.30;;;19.20;59.00;;;;;;5051984;28;20036;-55
2024/03/24 07:08:51;;;;;;;1.20;0.60;;;19.20;59.10;;;;;;5058252;28;20029;-55
2024/03/24 07:11:16;;;;;;;0.55;0.40;;;19.20;59.00;;;;;;5057420;28;20047;-50
2024/03/24 07:13:42;;;;;;;0.65;0.43;;;19.20;59.00;;;;;;5055362;28;20083;-54
2024/03/24 07:16:08;;;;;;;0.55;0.40;;;19.30;59.10;;;;;;5054301;28;20029;-54
2024/03/24 07:18:34;;;;;;;1.17;0.60;;;19.20;59.10;;;;;;5057757;28;20028;-54
2024/03/24 07:21:00;;;;;;;1.23;0.50;;;19.30;59.00;;;;;;5059628;28;25800;-54
2024/03/24 07:23:26;;;;;;;0.55;0.50;;;19.30;59.00;;;;;;5059802;28;20067;-57
2024/03/24 07:25:52;;;;;;;1.17;0.50;;;19.30;59.10;;;;;;5056661;28;20056;-53
2024/03/24 07:28:18;;;;;;;0.60;0.40;;;19.20;59.10;;;;;;5060925;28;20701;-56
2024/03/24 07:30:44;;;;;;;1.27;0.50;;;19.20;59.20;;;;;;5056891;28;20124;-54
2024/03/24 07:33:11;;;;;;;1.38;0.70;;;19.30;59.10;;;;;;5057409;28;20048;-58
2024/03/24 07:35:36;;;;;;;0.80;0.50;;;19.20;59.20;;;;;;5061779;28;20609;-54
2024/03/24 07:38:02;;;;;;;0.85;0.50;;;19.20;59.10;;;;;;5061822;28;20024;-52
2024/03/24 07:40:27;;;;;;;0.65;0.52;;;19.20;59.10;;;;;;5053714;28;20056;-58
2024/03/24 07:42:53;;;;;;;0.50;0.40;;;19.20;59.10;;;;;;5061394;28;20445;-50
2024/03/24 07:45:18;;;;;;;0.98;0.50;;;19.20;59.10;;;;;;5064451;28;20111;-57
2024/03/24 07:47:44;;;;;;;1.58;0.68;;;19.20;59.20;;;;;;5061340;28;20028;-55
2024/03/24 07:50:09;;;;;;;1.77;0.40;;;19.20;58.90;;;;;;5057147;28;20147;-56
2024/03/24 07:52:35;;;;;;;1.60;0.77;;;19.20;58.80;;;;;;5055855;28;20025;-53
2024/03/24 07:55:00;;;;;;;2.80;0.63;;;19.20;58.90;;;;;;5062355;28;20032;-57
2024/03/24 07:57:26;;;;;;;1.48;0.38;;;19.20;59.10;;;;;;5062591;28;20025;-60
2024/03/24 07:59:53;;;;;;;1.35;0.75;;;19.20;59.20;;;;;;5053968;28;20690;-53
2024/03/24 08:02:18;;;;;;;2.88;1.00;;;19.10;59.20;;;;;;5057074;28;20075;-55
2024/03/24 08:04:44;;;;;;;1.77;0.90;;;19.10;59.20;;;;;;5057735;28;20028;-51
2024/03/24 08:07:09;;;;;;;3.40;1.48;;;19.10;59.20;;;;;;5058914;28;20055;-52
2024/03/24 08:09:35;;;;;;;4.05;2.10;;;19.10;59.40;;;;;;5056093;28;20029;-57
2024/03/24 08:12:00;;;;;;;2.20;1.60;;;19.10;59.30;;;;;;5056047;28;20106;-56
2024/03/24 08:14:25;;;;;;;8.63;2.33;;;19.00;59.40;;;;;;5054695;28;20115;-54
2024/03/24 08:16:54;;;;;;;6.88;2.47;;;19.00;59.50;;;;;;5051054;28;20044;-56
2024/03/24 08:19:20;;;;;;;8.52;2.42;;;19.00;59.60;;;;;;5060430;28;20020;-58
2024/03/24 08:21:45;;;;;;;5.70;2.42;;;19.00;59.70;;;;;;5049340;28;20077;-58
2024/03/24 08:24:12;;;;;;;6.55;2.22;;;19.00;59.80;;;;;;5051586;28;20487;-55
2024/03/24 08:26:38;;;;;;;4.70;2.33;;;18.90;59.80;;;;;;5043646;28;20036;-52
2024/03/24 08:29:05;;;;;;;6.20;2.60;;;18.80;59.80;;;;;;5050149;28;20086;-56
2024/03/24 08:31:30;;;;;;;5.38;2.15;;;18.90;59.90;;;;;;5058933;28;20044;-54
2024/03/24 08:33:56;;;;;;;4.15;1.83;;;18.90;59.90;;;;;;5052638;28;20054;-56
2024/03/24 08:36:22;;;;;;;4.63;2.15;;;18.80;60.00;;;;;;5055668;28;20029;-53
2024/03/24 08:38:47;;;;;;;5.68;2.60;;;18.80;60.00;;;;;;5051417;28;20024;-57
2024/03/24 08:41:13;;;;;;;6.13;2.75;;;18.80;60.00;;;;;;5054552;28;20544;-51
2024/03/24 08:43:39;;;;;;;5.25;2.20;;;18.80;60.00;;;;;;5055227;28;20525;-56
2024/03/24 08:46:05;;;;;;;5.57;2.47;;;18.80;60.00;;;;;;5058429;28;20054;-57
2024/03/24 08:48:31;;;;;;;5.30;2.15;;;18.80;59.90;;;;;;5056568;28;20116;-52
2024/03/24 08:50:56;;;;;;;4.53;2.13;;;18.80;59.80;;;;;;5057075;28;20031;-54
2024/03/24 08:53:22;;;;;;;4.75;2.10;;;18.90;59.80;;;;;;5053558;28;20038;-57
2024/03/24 08:55:47;;;;;;;5.65;2.13;;;18.90;59.60;;;;;;5052416;28;20032;-57
2024/03/24 08:58:13;;;;;;;5.47;2.22;;;18.90;59.50;;;;;;5056239;28;20037;-51
2024/03/24 09:00:40;;;;;;;4.22;2.45;;;19.00;59.50;;;;;;5056321;28;20025;-52
2024/03/24 09:03:05;;;;;;;5.60;2.33;;;19.00;59.40;;;;;;5050237;28;20059;-51
2024/03/24 09:05:32;;;;;;;6.03;2.60;;;19.10;59.20;;;;;;5055034;28;20125;-50
2024/03/24 09:07:57;;;;;;;4.85;2.45;;;19.10;59.20;;;;;;5051755;28;20151;-52
2024/03/24 09:10:23;;;;;;;5.13;2.78;;;19.20;59.10;;;;;;5055683;28;20104;-53
2024/03/24 09:12:50;;;;;;;6.00;2.35;;;19.20;59.00;;;;;;5053127;28;20031;-55
2024/03/24 09:15:18;;;;;;;5.03;1.95;;;19.30;58.90;;;;;;5058517;28;20021;-50
2024/03/24 09:17:43;;;;;;;4.90;2.13;;;19.40;58.90;;;;;;5053839;28;20028;-52
2024/03/24 09:20:09;;;;;;;3.97;2.30;;;19.40;58.80;;;;;;5053497;28;20029;-56
2024/03/24 09:22:35;;;;;;;6.38;2.53;;;19.40;58.70;;;;;;5056504;28;20032;-52
2024/03/24 09:25:00;;;;;;;4.10;2.60;;;19.40;58.70;;;;;;5056504;28;20025;-57
2024/03/24 09:27:26;;;;;;;7.95;2.30;;;19.50;58.70;;;;;;5057170;28;20033;-51
2024/03/24 09:29:52;;;;;;;4.45;2.90;;;19.50;58.60;;;;;;5049217;28;20490;-52
2024/03/24 09:32:17;;;;;;;4.63;2.20;;;19.50;58.50;;;;;;5058429;28;20032;-50
2024/03/24 09:34:44;;;;;;;5.10;2.35;;;19.50;58.50;;;;;;5052274;28;20024;-56
2024/03/24 09:37:09;;;;;;;5.78;2.40;;;19.50;58.50;;;;;;5052890;28;20119;-52
2024/03/24 09:39:35;;;;;;;4.93;2.30;;;19.60;58.50;;;;;;5056554;28;20120;-58
2024/03/24 09:42:04;;;;;;;5.55;3.00;;;19.60;58.40;;;;;;5057046;28;20048;-53
2024/03/24 09:44:30;;;;;;;4.85;2.45;;;19.60;58.50;;;;;;5057515;28;20478;-54
2024/03/24 09:46:59;;;;;;;3.83;2.38;;;19.60;58.50;;;;;;5053684;28;20098;-51
2024/03/24 09:49:26;;;;;;;5.57;2.22;;;19.60;58.50;;;;;;5060310;28;20024;-50
2024/03/24 09:51:53;;;;;;;4.10;2.35;;;19.60;58.50;;;;;;5056395;28;20497;-52
2024/03/24 09:54:18;;;;;;;4.45;2.00;;;19.60;58.50;;;;;;5056541;28;20393;-51
2024/03/24 09:56:44;;;;;;;4.60;2.42;;;19.60;58.50;;;;;;5054328;28;20104;-50
2024/03/24 09:59:10;;;;;;;4.45;2.35;;;19.60;58.40;;;;;;5048059;28;20515;-55
2024/03/24 10:01:38;;;;;;;5.40;2.05;;;19.60;58.40;;;;;;5051881;28;20028;-52
2024/03/24 10:04:04;;;;;;;5.47;1.73;;;19.60;58.50;;;;;;5058707;28;20536;-59
2024/03/24 10:06:31;;;;;;;4.57;2.30;;;19.60;58.60;;;;;;5056038;28;20116;-58
2024/03/24 10:08:56;;;;;;;4.88;2.10;;;19.50;58.70;;;;;;5049936;28;20078;-53
2024/03/24 10:11:32;;;;;;;4.03;2.53;;;19.60;58.70;;;;;;5058589;28;20020;-53
2024/03/24 10:13:59;;;;;;;3.67;1.83;;;19.50;58.80;;;;;;5048480;28;20040;-59
2024/03/24 10:16:25;;;;;;;4.65;1.95;;;19.50;58.90;;;;;;5034255;28;20056;-55
2024/03/24 10:18:51;;;;;;;4.65;2.20;;;19.50;58.80;;;;;;5034641;28;20442;-54
2024/03/24 10:21:17;;;;;;;4.80;2.17;;;19.40;58.80;;;;;;5035933;28;20036;-59
2024/03/24 10:23:43;;;;;;;3.47;1.75;;;19.40;58.80;;;;;;5036300;28;20425;-51
2024/03/24 10:26:09;;;;;;;3.50;2.03;;;19.40;58.90;;;;;;5037775;28;20044;-57
2024/03/24 10:28:34;;;;;;;3.88;2.08;;;19.40;59.00;;;;;;5032018;28;20049;-59
2024/03/24 10:31:10;;;;;;;3.38;2.03;;;19.30;59.10;;;;;;5032102;28;20504;-56
2024/03/24 10:33:36;;;;;;;5.40;2.25;;;19.30;59.80;;;;;;5030904;28;20037;-54
2024/03/24 10:36:08;;;;;;;4.10;1.80;;;19.30;59.20;;;;;;5032238;28;20044;-55
2024/03/24 10:38:36;;;;;;;4.50;2.20;;;19.30;59.30;;;;;;5034274;28;20045;-51
2024/03/24 10:41:06;;;;;;;4.80;2.78;;;19.30;59.30;;;;;;5051994;22;20048;-56
2024/03/24 10:43:32;;;;;;;3.88;1.95;;;19.30;60.00;;;;;;5048752;28;20138;-54
2024/03/24 10:45:58;;;;;;;4.38;2.08;;;19.30;59.40;;;;;;5041592;28;20036;-55
2024/03/24 10:48:35;;;;;;;4.07;2.42;;;19.20;59.50;;;;;;5041245;28;20021;-53
2024/03/24 10:51:07;;;;;;;3.95;2.22;;;19.20;59.50;;;;;;5026623;28;20113;-54
2024/03/24 10:53:33;;;;;;;3.67;2.10;;;19.20;59.60;;;;;;5029093;28;20037;-54
2024/03/24 10:56:00;;;;;;;2.97;1.95;;;19.20;59.60;;;;;;5021680;28;20113;-56
2024/03/24 10:58:27;;;;;;;4.22;1.95;;;19.20;59.60;;;;;;5029828;28;20682;-53
2024/03/24 11:00:53;;;;;;;2.50;1.83;;;19.20;59.70;;;;;;5025828;28;20114;-59
2024/03/24 11:03:20;;;;;;;3.42;2.17;;;19.20;59.70;;;;;;5024741;28;20044;-57
2024/03/24 11:05:47;;;;;;;3.53;1.65;;;19.20;59.70;;;;;;5027349;28;20805;-54
2024/03/24 11:08:15;;;;;;;3.50;1.63;;;19.20;59.70;;;;;;5030645;28;20044;-56
2024/03/24 11:10:54;;;;;;;2.63;1.55;;;19.20;59.70;;;;;;5021977;28;20029;-58
2024/03/24 11:13:27;;;;;;;4.35;2.08;;;19.20;59.70;;;;;;5015091;28;20040;-53
2024/03/24 11:15:53;;;;;;;4.30;1.85;;;19.10;59.80;;;;;;5020320;28;20029;-57
2024/03/24 11:18:21;;;;;;;2.72;1.95;;;19.10;59.80;;;;;;5020731;28;20265;-51
2024/03/24 11:20:57;;;;;;;3.60;1.83;;;19.10;59.80;;;;;;5024887;28;20025;-57
2024/03/24 11:23:32;;;;;;;3.15;1.80;;;19.10;59.90;;;;;;5027014;28;20042;-54
2024/03/24 11:26:00;;;;;;;2.60;1.50;;;19.10;59.90;;;;;;5027340;28;20044;-57
2024/03/24 11:28:38;;;;;;;2.88;1.60;;;19.20;59.90;;;;;;5027317;28;20025;-55
2024/03/24 11:31:29;;;;;;;3.42;1.92;;;19.10;59.90;;;;;;5023972;28;21216;-58
2024/03/24 11:34:02;;;;;;;2.25;1.88;;;19.10;59.90;;;;;;5028770;28;20033;-58
2024/03/24 11:36:27;;;;;;;4.65;1.60;;;19.10;60.00;;;;;;5026574;28;20033;-60
2024/03/24 11:38:54;;;;;;;1.90;1.33;;;19.10;59.90;;;;;;5024541;28;20415;-56
2024/03/24 11:41:20;;;;;;;2.60;1.52;;;19.10;60.00;;;;;;5027497;28;20037;-54
2024/03/24 11:44:06;;;;;;;3.67;1.65;;;19.10;59.90;;;;;;5028968;28;20025;-58
2024/03/24 11:46:35;;;;;;;3.33;1.30;;;19.10;59.90;;;;;;5021018;28;20129;-58
2024/03/24 11:49:02;;;;;;;2.88;1.50;;;19.10;59.90;;;;;;5015975;28;20049;-58
2024/03/24 11:51:30;;;;;;;4.15;1.60;;;19.10;60.00;;;;;;5027901;28;20063;-54
2024/03/24 11:53:56;;;;;;;2.88;1.70;;;19.10;60.00;;;;;;5024906;28;20037;-54
2024/03/24 11:56:25;;;;;;;2.90;1.60;;;19.10;60.10;;;;;;5029675;28;20043;-55
2024/03/24 11:58:52;;;;;;;3.47;1.60;;;19.10;60.20;;;;;;5027685;28;20452;-56
2024/03/24 12:01:19;;;;;;;2.40;1.40;;;19.10;60.30;;;;;;5032881;28;20041;-55
2024/03/24 12:03:45;;;;;;;2.63;1.50;;;19.00;60.20;;;;;;5014029;28;20033;-54
2024/03/24 12:06:15;;;;;;;2.15;1.25;;;19.00;60.60;;;;;;5037556;28;20068;-57
2024/03/24 12:08:41;;;;;;;2.38;1.65;;;19.00;60.40;;;;;;5037014;28;20044;-57
2024/03/24 12:11:10;;;;;;;3.45;1.95;;;19.00;60.60;;;;;;5035519;28;20067;-53
2024/03/24 12:13:36;;;;;;;2.78;1.58;;;19.00;60.60;;;;;;5034877;28;20036;-54
2024/03/24 12:16:05;;;;;;;3.83;1.52;;;19.00;61.10;;;;;;5033347;28;20032;-54
2024/03/24 12:18:30;;;;;;;3.13;1.52;;;18.90;60.80;;;;;;5032597;28;20033;-56
2024/03/24 12:20:59;;;;;;;4.57;1.63;;;18.90;60.90;;;;;;5031047;28;20029;-56
2024/03/24 12:23:26;;;;;;;2.53;1.30;;;18.90;61.20;;;;;;5034546;28;20533;-58
2024/03/24 12:25:55;;;;;;;2.97;1.70;;;18.90;61.20;;;;;;5034039;28;20119;-57
2024/03/24 12:28:21;;;;;;;2.78;1.55;;;18.90;61.30;;;;;;5031788;28;20059;-57
2024/03/24 12:30:55;;;;;;;3.05;1.27;;;18.80;61.30;;;;;;5035867;28;20601;-54
2024/03/24 12:33:22;;;;;;;2.40;1.35;;;18.80;61.40;;;;;;5025385;28;20036;-60
2024/03/24 12:35:49;;;;;;;2.95;1.23;;;18.80;61.30;;;;;;5036749;28;20040;-59
2024/03/24 12:38:16;;;;;;;1.65;1.30;;;18.80;61.40;;;;;;5031357;28;20122;-58
2024/03/24 12:40:52;;;;;;;1.42;1.10;;;18.80;61.30;;;;;;5031469;28;20049;-55
2024/03/24 12:43:17;;;;;;;1.98;1.20;;;18.80;61.30;;;;;;5035930;28;20094;-57